sensor_id;sensor_type;location;lat;lon;timestamp;P1;durP1;ratioP1;P2;durP2;ratioP2
10122;SDS011;5101;49.038;8.710;2023-02-01T00:01:48;3.97;;;3.10;;
10122;SDS011;5101;49.038;8.710;2023-02-01T00:04:14;4.67;;;3.20;;
10122;SDS011;5101;49.038;8.710;2023-02-01T00:06:40;3.07;;;2.67;;
10122;SDS011;5101;49.038;8.710;2023-02-01T00:09:05;3.27;;;2.83;;
10122;SDS011;5101;49.038;8.710;2023-02-01T00:11:31;3.07;;;2.77;;
10122;SDS011;5101;49.038;8.710;2023-02-01T00:13:56;5.13;;;2.80;;
10122;SDS011;5101;49.038;8.710;2023-02-01T00:16:26;3.17;;;2.80;;
10122;SDS011;5101;49.038;8.710;2023-02-01T00:19:00;4.90;;;3.00;;
10122;SDS011;5101;49.038;8.710;2023-02-01T00:21:28;3.00;;;2.67;;
10122;SDS011;5101;49.038;8.710;2023-02-01T00:23:54;3.30;;;3.00;;
10122;SDS011;5101;49.038;8.710;2023-02-01T00:26:22;3.67;;;2.67;;
10122;SDS011;5101;49.038;8.710;2023-02-01T00:28:54;4.20;;;2.70;;
10122;SDS011;5101;49.038;8.710;2023-02-01T00:31:20;3.37;;;3.03;;
10122;SDS011;5101;49.038;8.710;2023-02-01T00:33:48;3.47;;;2.80;;
10122;SDS011;5101;49.038;8.710;2023-02-01T00:36:14;2.80;;;2.57;;
10122;SDS011;5101;49.038;8.710;2023-02-01T00:38:40;2.50;;;2.30;;
10122;SDS011;5101;49.038;8.710;2023-02-01T00:41:13;3.10;;;2.57;;
10122;SDS011;5101;49.038;8.710;2023-02-01T00:43:40;3.07;;;2.77;;
10122;SDS011;5101;49.038;8.710;2023-02-01T00:46:07;2.80;;;2.50;;
10122;SDS011;5101;49.038;8.710;2023-02-01T00:48:33;4.47;;;2.30;;
10122;SDS011;5101;49.038;8.710;2023-02-01T00:51:02;4.27;;;2.30;;
10122;SDS011;5101;49.038;8.710;2023-02-01T00:53:29;3.10;;;2.57;;
10122;SDS011;5101;49.038;8.710;2023-02-01T00:55:55;2.53;;;2.10;;
10122;SDS011;5101;49.038;8.710;2023-02-01T00:58:21;2.23;;;1.80;;
10122;SDS011;5101;49.038;8.710;2023-02-01T01:00:48;3.33;;;2.20;;
10122;SDS011;5101;49.038;8.710;2023-02-01T01:03:14;2.97;;;2.33;;
10122;SDS011;5101;49.038;8.710;2023-02-01T01:05:43;2.40;;;2.20;;
10122;SDS011;5101;49.038;8.710;2023-02-01T01:08:10;2.60;;;2.10;;
10122;SDS011;5101;49.038;8.710;2023-02-01T01:10:35;3.60;;;2.17;;
10122;SDS011;5101;49.038;8.710;2023-02-01T01:13:01;2.77;;;1.97;;
10122;SDS011;5101;49.038;8.710;2023-02-01T01:15:26;3.30;;;1.67;;
10122;SDS011;5101;49.038;8.710;2023-02-01T01:17:52;1.93;;;1.77;;
10122;SDS011;5101;49.038;8.710;2023-02-01T01:20:17;2.60;;;1.80;;
10122;SDS011;5101;49.038;8.710;2023-02-01T01:22:46;2.67;;;2.03;;
10122;SDS011;5101;49.038;8.710;2023-02-01T01:25:12;2.07;;;1.97;;
10122;SDS011;5101;49.038;8.710;2023-02-01T01:27:37;2.13;;;1.83;;
10122;SDS011;5101;49.038;8.710;2023-02-01T01:30:03;2.10;;;1.90;;
10122;SDS011;5101;49.038;8.710;2023-02-01T01:32:29;2.77;;;1.60;;
10122;SDS011;5101;49.038;8.710;2023-02-01T01:34:54;1.70;;;1.60;;
10122;SDS011;5101;49.038;8.710;2023-02-01T01:37:20;3.20;;;1.80;;
10122;SDS011;5101;49.038;8.710;2023-02-01T01:39:45;2.90;;;1.80;;
10122;SDS011;5101;49.038;8.710;2023-02-01T01:42:11;3.73;;;2.00;;
10122;SDS011;5101;49.038;8.710;2023-02-01T01:44:59;2.13;;;1.93;;
10122;SDS011;5101;49.038;8.710;2023-02-01T01:47:31;2.20;;;1.97;;
10122;SDS011;5101;49.038;8.710;2023-02-01T01:50:00;2.73;;;2.10;;
10122;SDS011;5101;49.038;8.710;2023-02-01T01:52:27;2.50;;;2.30;;
10122;SDS011;5101;49.038;8.710;2023-02-01T01:54:53;2.87;;;2.13;;
10122;SDS011;5101;49.038;8.710;2023-02-01T01:57:24;2.70;;;2.10;;
10122;SDS011;5101;49.038;8.710;2023-02-01T02:00:14;3.53;;;1.97;;
10122;SDS011;5101;49.038;8.710;2023-02-01T02:02:40;2.37;;;1.90;;
10122;SDS011;5101;49.038;8.710;2023-02-01T02:05:08;2.83;;;1.50;;
10122;SDS011;5101;49.038;8.710;2023-02-01T02:07:36;2.80;;;2.20;;
10122;SDS011;5101;49.038;8.710;2023-02-01T02:10:05;1.60;;;1.50;;
10122;SDS011;5101;49.038;8.710;2023-02-01T02:12:35;2.47;;;1.60;;
10122;SDS011;5101;49.038;8.710;2023-02-01T02:15:05;2.83;;;1.83;;
10122;SDS011;5101;49.038;8.710;2023-02-01T02:23:27;2.37;;;1.77;;
10122;SDS011;5101;49.038;8.710;2023-02-01T02:34:47;1.77;;;1.57;;
10122;SDS011;5101;49.038;8.710;2023-02-01T02:40:01;1.85;;;1.30;;
10122;SDS011;5101;49.038;8.710;2023-02-01T02:42:37;1.97;;;1.40;;
10122;SDS011;5101;49.038;8.710;2023-02-01T02:48:35;2.10;;;1.50;;
10122;SDS011;5101;49.038;8.710;2023-02-01T02:51:21;1.20;;;1.10;;
10122;SDS011;5101;49.038;8.710;2023-02-01T02:54:25;1.30;;;1.20;;
10122;SDS011;5101;49.038;8.710;2023-02-01T02:57:33;1.70;;;1.30;;
10122;SDS011;5101;49.038;8.710;2023-02-01T03:00:25;1.80;;;1.20;;
10122;SDS011;5101;49.038;8.710;2023-02-01T03:03:12;2.50;;;1.30;;
10122;SDS011;5101;49.038;8.710;2023-02-01T03:05:56;1.93;;;1.67;;
10122;SDS011;5101;49.038;8.710;2023-02-01T03:08:23;1.50;;;1.37;;
10122;SDS011;5101;49.038;8.710;2023-02-01T03:11:01;1.63;;;1.37;;
10122;SDS011;5101;49.038;8.710;2023-02-01T03:13:38;2.47;;;1.40;;
10122;SDS011;5101;49.038;8.710;2023-02-01T03:16:17;1.97;;;1.40;;
10122;SDS011;5101;49.038;8.710;2023-02-01T03:19:01;1.53;;;1.43;;
10122;SDS011;5101;49.038;8.710;2023-02-01T03:21:35;1.70;;;1.60;;
10122;SDS011;5101;49.038;8.710;2023-02-01T03:24:16;2.80;;;1.63;;
10122;SDS011;5101;49.038;8.710;2023-02-01T03:26:48;1.30;;;1.20;;
10122;SDS011;5101;49.038;8.710;2023-02-01T03:29:21;2.60;;;1.30;;
10122;SDS011;5101;49.038;8.710;2023-02-01T03:31:49;1.37;;;1.27;;
10122;SDS011;5101;49.038;8.710;2023-02-01T03:34:15;1.97;;;1.33;;
10122;SDS011;5101;49.038;8.710;2023-02-01T03:36:51;2.40;;;1.43;;
10122;SDS011;5101;49.038;8.710;2023-02-01T03:39:45;2.13;;;1.10;;
10122;SDS011;5101;49.038;8.710;2023-02-01T03:42:24;1.27;;;1.17;;
10122;SDS011;5101;49.038;8.710;2023-02-01T03:47:29;2.00;;;1.43;;
10122;SDS011;5101;49.038;8.710;2023-02-01T03:50:00;1.30;;;1.20;;
10122;SDS011;5101;49.038;8.710;2023-02-01T03:52:35;1.30;;;1.20;;
10122;SDS011;5101;49.038;8.710;2023-02-01T03:55:23;1.47;;;1.20;;
10122;SDS011;5101;49.038;8.710;2023-02-01T03:58:03;1.43;;;1.30;;
10122;SDS011;5101;49.038;8.710;2023-02-01T04:00:33;1.80;;;1.50;;
10122;SDS011;5101;49.038;8.710;2023-02-01T04:02:58;3.03;;;1.43;;
10122;SDS011;5101;49.038;8.710;2023-02-01T04:05:24;2.27;;;1.30;;
10122;SDS011;5101;49.038;8.710;2023-02-01T04:07:49;1.77;;;1.40;;
10122;SDS011;5101;49.038;8.710;2023-02-01T04:10:15;1.70;;;1.27;;
10122;SDS011;5101;49.038;8.710;2023-02-01T04:12:41;1.23;;;1.13;;
10122;SDS011;5101;49.038;8.710;2023-02-01T04:15:07;1.50;;;1.40;;
10122;SDS011;5101;49.038;8.710;2023-02-01T04:17:34;1.70;;;1.50;;
10122;SDS011;5101;49.038;8.710;2023-02-01T04:19:59;2.67;;;1.67;;
10122;SDS011;5101;49.038;8.710;2023-02-01T04:22:25;2.87;;;1.70;;
10122;SDS011;5101;49.038;8.710;2023-02-01T04:24:50;2.30;;;1.77;;
10122;SDS011;5101;49.038;8.710;2023-02-01T04:27:16;2.00;;;1.80;;
10122;SDS011;5101;49.038;8.710;2023-02-01T04:29:41;1.80;;;1.70;;
10122;SDS011;5101;49.038;8.710;2023-02-01T04:32:07;3.00;;;2.27;;
10122;SDS011;5101;49.038;8.710;2023-02-01T04:34:33;3.00;;;2.20;;
10122;SDS011;5101;49.038;8.710;2023-02-01T04:36:58;2.43;;;2.13;;
10122;SDS011;5101;49.038;8.710;2023-02-01T04:39:24;2.50;;;2.00;;
10122;SDS011;5101;49.038;8.710;2023-02-01T04:41:49;4.93;;;2.27;;
10122;SDS011;5101;49.038;8.710;2023-02-01T04:44:16;2.10;;;1.80;;
10122;SDS011;5101;49.038;8.710;2023-02-01T04:46:42;2.83;;;1.93;;
10122;SDS011;5101;49.038;8.710;2023-02-01T04:49:08;1.70;;;1.43;;
10122;SDS011;5101;49.038;8.710;2023-02-01T04:51:35;2.27;;;1.67;;
10122;SDS011;5101;49.038;8.710;2023-02-01T04:54:00;2.67;;;1.87;;
10122;SDS011;5101;49.038;8.710;2023-02-01T04:56:26;2.63;;;1.90;;
10122;SDS011;5101;49.038;8.710;2023-02-01T04:58:51;3.93;;;1.93;;
10122;SDS011;5101;49.038;8.710;2023-02-01T05:01:17;2.37;;;2.17;;
10122;SDS011;5101;49.038;8.710;2023-02-01T05:03:43;2.53;;;2.00;;
10122;SDS011;5101;49.038;8.710;2023-02-01T05:06:08;2.73;;;2.00;;
10122;SDS011;5101;49.038;8.710;2023-02-01T05:08:34;2.77;;;1.90;;
10122;SDS011;5101;49.038;8.710;2023-02-01T05:10:59;2.43;;;2.13;;
10122;SDS011;5101;49.038;8.710;2023-02-01T05:13:27;3.17;;;2.03;;
10122;SDS011;5101;49.038;8.710;2023-02-01T05:16:11;1.77;;;1.67;;
10122;SDS011;5101;49.038;8.710;2023-02-01T05:18:37;2.27;;;1.80;;
10122;SDS011;5101;49.038;8.710;2023-02-01T05:21:03;2.90;;;1.60;;
10122;SDS011;5101;49.038;8.710;2023-02-01T05:23:28;2.00;;;1.53;;
10122;SDS011;5101;49.038;8.710;2023-02-01T05:25:58;1.70;;;1.50;;
10122;SDS011;5101;49.038;8.710;2023-02-01T05:28:25;1.40;;;1.30;;
10122;SDS011;5101;49.038;8.710;2023-02-01T05:30:51;1.13;;;1.03;;
10122;SDS011;5101;49.038;8.710;2023-02-01T05:33:16;3.23;;;1.73;;
10122;SDS011;5101;49.038;8.710;2023-02-01T05:35:42;1.53;;;1.27;;
10122;SDS011;5101;49.038;8.710;2023-02-01T05:38:07;1.70;;;1.40;;
10122;SDS011;5101;49.038;8.710;2023-02-01T05:40:32;3.30;;;1.70;;
10122;SDS011;5101;49.038;8.710;2023-02-01T05:42:58;1.50;;;1.40;;
10122;SDS011;5101;49.038;8.710;2023-02-01T05:45:23;2.70;;;1.73;;
10122;SDS011;5101;49.038;8.710;2023-02-01T05:47:49;2.43;;;1.83;;
10122;SDS011;5101;49.038;8.710;2023-02-01T05:50:15;2.73;;;1.77;;
10122;SDS011;5101;49.038;8.710;2023-02-01T05:52:41;2.47;;;2.13;;
10122;SDS011;5101;49.038;8.710;2023-02-01T05:55:07;3.20;;;2.07;;
10122;SDS011;5101;49.038;8.710;2023-02-01T05:57:33;6.40;;;1.87;;
10122;SDS011;5101;49.038;8.710;2023-02-01T05:59:58;2.10;;;1.90;;
10122;SDS011;5101;49.038;8.710;2023-02-01T06:02:24;5.50;;;2.03;;
10122;SDS011;5101;49.038;8.710;2023-02-01T06:04:49;7.20;;;2.40;;
10122;SDS011;5101;49.038;8.710;2023-02-01T06:07:15;4.33;;;3.07;;
10122;SDS011;5101;49.038;8.710;2023-02-01T06:09:41;5.77;;;3.10;;
10122;SDS011;5101;49.038;8.710;2023-02-01T06:12:07;5.53;;;2.77;;
10122;SDS011;5101;49.038;8.710;2023-02-01T06:14:33;5.10;;;3.33;;
10122;SDS011;5101;49.038;8.710;2023-02-01T06:16:58;5.73;;;2.83;;
10122;SDS011;5101;49.038;8.710;2023-02-01T06:19:24;7.17;;;3.20;;
10122;SDS011;5101;49.038;8.710;2023-02-01T06:21:50;5.43;;;3.30;;
10122;SDS011;5101;49.038;8.710;2023-02-01T06:24:15;4.67;;;3.13;;
10122;SDS011;5101;49.038;8.710;2023-02-01T06:26:41;5.00;;;3.40;;
10122;SDS011;5101;49.038;8.710;2023-02-01T06:29:07;4.80;;;3.07;;
10122;SDS011;5101;49.038;8.710;2023-02-01T06:31:34;5.13;;;3.20;;
10122;SDS011;5101;49.038;8.710;2023-02-01T06:34:00;4.57;;;3.07;;
10122;SDS011;5101;49.038;8.710;2023-02-01T06:36:25;7.70;;;3.43;;
10122;SDS011;5101;49.038;8.710;2023-02-01T06:38:51;5.40;;;3.70;;
10122;SDS011;5101;49.038;8.710;2023-02-01T06:41:17;6.40;;;3.80;;
10122;SDS011;5101;49.038;8.710;2023-02-01T06:43:42;7.10;;;3.83;;
10122;SDS011;5101;49.038;8.710;2023-02-01T06:46:09;5.23;;;3.67;;
10122;SDS011;5101;49.038;8.710;2023-02-01T06:48:37;6.07;;;3.70;;
10122;SDS011;5101;49.038;8.710;2023-02-01T06:51:02;8.93;;;3.50;;
10122;SDS011;5101;49.038;8.710;2023-02-01T06:53:28;4.30;;;3.27;;
10122;SDS011;5101;49.038;8.710;2023-02-01T06:55:58;5.70;;;4.00;;
10122;SDS011;5101;49.038;8.710;2023-02-01T06:58:30;5.70;;;3.77;;
10122;SDS011;5101;49.038;8.710;2023-02-01T07:00:56;4.90;;;3.53;;
10122;SDS011;5101;49.038;8.710;2023-02-01T07:03:22;5.57;;;3.63;;
10122;SDS011;5101;49.038;8.710;2023-02-01T07:05:48;6.40;;;3.73;;
10122;SDS011;5101;49.038;8.710;2023-02-01T07:08:13;8.13;;;4.43;;
10122;SDS011;5101;49.038;8.710;2023-02-01T07:10:39;5.50;;;3.60;;
10122;SDS011;5101;49.038;8.710;2023-02-01T07:13:04;5.40;;;3.53;;
10122;SDS011;5101;49.038;8.710;2023-02-01T07:15:30;6.33;;;3.43;;
10122;SDS011;5101;49.038;8.710;2023-02-01T07:17:55;5.43;;;3.40;;
10122;SDS011;5101;49.038;8.710;2023-02-01T07:20:21;6.20;;;3.37;;
10122;SDS011;5101;49.038;8.710;2023-02-01T07:22:47;7.13;;;3.60;;
10122;SDS011;5101;49.038;8.710;2023-02-01T07:25:12;7.43;;;3.47;;
10122;SDS011;5101;49.038;8.710;2023-02-01T07:27:38;5.77;;;3.03;;
10122;SDS011;5101;49.038;8.710;2023-02-01T07:30:04;5.87;;;3.17;;
10122;SDS011;5101;49.038;8.710;2023-02-01T07:32:30;7.27;;;3.43;;
10122;SDS011;5101;49.038;8.710;2023-02-01T07:34:56;6.27;;;3.70;;
10122;SDS011;5101;49.038;8.710;2023-02-01T07:37:22;11.33;;;3.87;;
10122;SDS011;5101;49.038;8.710;2023-02-01T07:39:49;6.33;;;3.57;;
10122;SDS011;5101;49.038;8.710;2023-02-01T07:42:15;7.40;;;3.60;;
10122;SDS011;5101;49.038;8.710;2023-02-01T07:44:41;5.83;;;3.50;;
10122;SDS011;5101;49.038;8.710;2023-02-01T07:47:06;6.93;;;3.73;;
10122;SDS011;5101;49.038;8.710;2023-02-01T07:49:32;11.80;;;3.90;;
10122;SDS011;5101;49.038;8.710;2023-02-01T07:51:57;8.60;;;3.57;;
10122;SDS011;5101;49.038;8.710;2023-02-01T07:54:23;6.77;;;3.40;;
10122;SDS011;5101;49.038;8.710;2023-02-01T07:56:48;6.67;;;3.40;;
10122;SDS011;5101;49.038;8.710;2023-02-01T07:59:14;9.33;;;3.20;;
10122;SDS011;5101;49.038;8.710;2023-02-01T08:01:40;20.80;;;4.53;;
10122;SDS011;5101;49.038;8.710;2023-02-01T08:04:07;7.57;;;3.60;;
10122;SDS011;5101;49.038;8.710;2023-02-01T08:06:36;6.93;;;3.40;;
10122;SDS011;5101;49.038;8.710;2023-02-01T08:09:02;8.60;;;3.77;;
10122;SDS011;5101;49.038;8.710;2023-02-01T08:11:28;7.97;;;3.37;;
10122;SDS011;5101;49.038;8.710;2023-02-01T08:13:54;7.23;;;3.20;;
10122;SDS011;5101;49.038;8.710;2023-02-01T08:16:20;4.07;;;2.70;;
10122;SDS011;5101;49.038;8.710;2023-02-01T08:18:46;5.47;;;2.50;;
10122;SDS011;5101;49.038;8.710;2023-02-01T08:21:13;7.07;;;3.67;;
10122;SDS011;5101;49.038;8.710;2023-02-01T08:23:41;8.00;;;3.10;;
10122;SDS011;5101;49.038;8.710;2023-02-01T08:28:37;7.13;;;2.67;;
10122;SDS011;5101;49.038;8.710;2023-02-01T08:31:05;8.97;;;3.00;;
10122;SDS011;5101;49.038;8.710;2023-02-01T08:33:35;8.77;;;3.23;;
10122;SDS011;5101;49.038;8.710;2023-02-01T08:36:02;8.37;;;3.03;;
10122;SDS011;5101;49.038;8.710;2023-02-01T08:38:29;19.77;;;5.23;;
10122;SDS011;5101;49.038;8.710;2023-02-01T08:40:55;10.20;;;2.50;;
10122;SDS011;5101;49.038;8.710;2023-02-01T08:43:20;6.37;;;2.47;;
10122;SDS011;5101;49.038;8.710;2023-02-01T08:45:46;8.87;;;2.23;;
10122;SDS011;5101;49.038;8.710;2023-02-01T08:48:11;4.27;;;1.57;;
10122;SDS011;5101;49.038;8.710;2023-02-01T08:50:37;5.47;;;2.40;;
10122;SDS011;5101;49.038;8.710;2023-02-01T08:53:02;7.93;;;2.43;;
10122;SDS011;5101;49.038;8.710;2023-02-01T08:55:28;6.53;;;2.40;;
10122;SDS011;5101;49.038;8.710;2023-02-01T08:57:53;7.60;;;2.47;;
10122;SDS011;5101;49.038;8.710;2023-02-01T09:00:19;3.13;;;2.07;;
10122;SDS011;5101;49.038;8.710;2023-02-01T09:02:44;7.17;;;2.40;;
10122;SDS011;5101;49.038;8.710;2023-02-01T09:05:10;6.17;;;2.90;;
10122;SDS011;5101;49.038;8.710;2023-02-01T09:07:36;7.13;;;2.10;;
10122;SDS011;5101;49.038;8.710;2023-02-01T09:10:02;5.87;;;2.60;;
10122;SDS011;5101;49.038;8.710;2023-02-01T09:12:29;6.57;;;2.30;;
10122;SDS011;5101;49.038;8.710;2023-02-01T09:14:56;7.73;;;2.50;;
10122;SDS011;5101;49.038;8.710;2023-02-01T09:17:24;8.43;;;2.60;;
10122;SDS011;5101;49.038;8.710;2023-02-01T09:19:53;8.73;;;2.20;;
10122;SDS011;5101;49.038;8.710;2023-02-01T09:22:19;5.70;;;2.30;;
10122;SDS011;5101;49.038;8.710;2023-02-01T09:24:44;7.37;;;2.83;;
10122;SDS011;5101;49.038;8.710;2023-02-01T09:27:10;6.83;;;2.70;;
10122;SDS011;5101;49.038;8.710;2023-02-01T09:29:35;9.73;;;3.15;;
10122;SDS011;5101;49.038;8.710;2023-02-01T09:32:01;4.97;;;2.35;;
10122;SDS011;5101;49.038;8.710;2023-02-01T09:34:27;11.23;;;2.92;;
10122;SDS011;5101;49.038;8.710;2023-02-01T09:36:52;8.95;;;2.95;;
10122;SDS011;5101;49.038;8.710;2023-02-01T09:39:18;6.78;;;2.65;;
10122;SDS011;5101;49.038;8.710;2023-02-01T09:47:01;8.88;;;3.15;;
10122;SDS011;5101;49.038;8.710;2023-02-01T09:49:30;10.57;;;2.28;;
10122;SDS011;5101;49.038;8.710;2023-02-01T09:51:59;10.48;;;2.97;;
10122;SDS011;5101;49.038;8.710;2023-02-01T09:54:29;9.75;;;2.30;;
10122;SDS011;5101;49.038;8.710;2023-02-01T09:57:14;8.30;;;2.22;;
10122;SDS011;5101;49.038;8.710;2023-02-01T09:59:46;6.07;;;1.92;;
10122;SDS011;5101;49.038;8.710;2023-02-01T10:02:25;5.85;;;1.90;;
10122;SDS011;5101;49.038;8.710;2023-02-01T10:04:56;6.35;;;1.98;;
10122;SDS011;5101;49.038;8.710;2023-02-01T10:07:38;10.00;;;2.58;;
10122;SDS011;5101;49.038;8.710;2023-02-01T10:10:14;11.05;;;2.40;;
10122;SDS011;5101;49.038;8.710;2023-02-01T10:15:33;9.50;;;2.20;;
10122;SDS011;5101;49.038;8.710;2023-02-01T10:18:20;6.43;;;1.90;;
10122;SDS011;5101;49.038;8.710;2023-02-01T10:23:50;5.47;;;2.20;;
10122;SDS011;5101;49.038;8.710;2023-02-01T10:26:29;6.57;;;2.00;;
10122;SDS011;5101;49.038;8.710;2023-02-01T10:28:58;6.05;;;2.13;;
10122;SDS011;5101;49.038;8.710;2023-02-01T10:31:26;5.43;;;2.50;;
10122;SDS011;5101;49.038;8.710;2023-02-01T10:33:56;8.00;;;2.40;;
10122;SDS011;5101;49.038;8.710;2023-02-01T10:36:28;5.25;;;2.25;;
10122;SDS011;5101;49.038;8.710;2023-02-01T10:38:57;7.45;;;1.98;;
10122;SDS011;5101;49.038;8.710;2023-02-01T10:41:24;8.93;;;2.35;;
10122;SDS011;5101;49.038;8.710;2023-02-01T10:44:04;9.48;;;3.08;;
10122;SDS011;5101;49.038;8.710;2023-02-01T10:46:35;8.02;;;2.30;;
10122;SDS011;5101;49.038;8.710;2023-02-01T10:49:02;9.43;;;2.38;;
10122;SDS011;5101;49.038;8.710;2023-02-01T10:51:30;6.70;;;2.60;;
10122;SDS011;5101;49.038;8.710;2023-02-01T10:54:17;7.93;;;2.92;;
10122;SDS011;5101;49.038;8.710;2023-02-01T10:56:45;8.43;;;2.78;;
10122;SDS011;5101;49.038;8.710;2023-02-01T10:59:18;7.63;;;2.50;;
10122;SDS011;5101;49.038;8.710;2023-02-01T11:01:48;7.32;;;2.20;;
10122;SDS011;5101;49.038;8.710;2023-02-01T11:04:18;9.82;;;2.50;;
10122;SDS011;5101;49.038;8.710;2023-02-01T11:06:45;6.97;;;2.08;;
10122;SDS011;5101;49.038;8.710;2023-02-01T11:09:24;8.32;;;2.58;;
10122;SDS011;5101;49.038;8.710;2023-02-01T11:14:16;6.38;;;2.17;;
10122;SDS011;5101;49.038;8.710;2023-02-01T11:16:47;10.17;;;2.47;;
10122;SDS011;5101;49.038;8.710;2023-02-01T11:19:15;10.18;;;2.67;;
10122;SDS011;5101;49.038;8.710;2023-02-01T11:21:42;5.75;;;2.15;;
10122;SDS011;5101;49.038;8.710;2023-02-01T11:24:16;7.28;;;1.90;;
10122;SDS011;5101;49.038;8.710;2023-02-01T11:26:50;9.35;;;2.25;;
10122;SDS011;5101;49.038;8.710;2023-02-01T11:29:23;5.15;;;2.50;;
10122;SDS011;5101;49.038;8.710;2023-02-01T11:31:54;7.60;;;2.33;;
10122;SDS011;5101;49.038;8.710;2023-02-01T11:34:23;8.38;;;2.28;;
10122;SDS011;5101;49.038;8.710;2023-02-01T11:36:59;6.32;;;2.10;;
10122;SDS011;5101;49.038;8.710;2023-02-01T11:39:32;10.85;;;2.45;;
10122;SDS011;5101;49.038;8.710;2023-02-01T11:42:11;7.95;;;2.10;;
10122;SDS011;5101;49.038;8.710;2023-02-01T11:44:40;7.18;;;2.30;;
10122;SDS011;5101;49.038;8.710;2023-02-01T11:47:20;7.82;;;1.80;;
10122;SDS011;5101;49.038;8.710;2023-02-01T11:49:55;9.02;;;2.38;;
10122;SDS011;5101;49.038;8.710;2023-02-01T12:00:35;8.07;;;2.00;;
10122;SDS011;5101;49.038;8.710;2023-02-01T12:03:04;8.55;;;2.45;;
10122;SDS011;5101;49.038;8.710;2023-02-01T12:11:12;22.75;;;14.95;;
10122;SDS011;5101;49.038;8.710;2023-02-01T12:13:57;30.20;;;18.23;;
10122;SDS011;5101;49.038;8.710;2023-02-01T12:16:29;9.02;;;4.50;;
10122;SDS011;5101;49.038;8.710;2023-02-01T12:32:59;7.22;;;2.55;;
10122;SDS011;5101;49.038;8.710;2023-02-01T12:36:01;6.20;;;2.42;;
10122;SDS011;5101;49.038;8.710;2023-02-01T12:47:03;5.88;;;1.85;;
10122;SDS011;5101;49.038;8.710;2023-02-01T12:49:47;9.20;;;2.55;;
10122;SDS011;5101;49.038;8.710;2023-02-01T12:52:14;8.53;;;2.60;;
10122;SDS011;5101;49.038;8.710;2023-02-01T12:54:48;9.15;;;2.38;;
10122;SDS011;5101;49.038;8.710;2023-02-01T12:57:31;10.05;;;2.47;;
10122;SDS011;5101;49.038;8.710;2023-02-01T13:02:41;6.95;;;2.15;;
10122;SDS011;5101;49.038;8.710;2023-02-01T13:05:17;7.05;;;2.22;;
10122;SDS011;5101;49.038;8.710;2023-02-01T13:10:17;7.40;;;2.37;;
10122;SDS011;5101;49.038;8.710;2023-02-01T13:13:09;11.15;;;2.60;;
10122;SDS011;5101;49.038;8.710;2023-02-01T13:15:58;23.42;;;10.27;;
10122;SDS011;5101;49.038;8.710;2023-02-01T13:18:38;15.23;;;6.00;;
10122;SDS011;5101;49.038;8.710;2023-02-01T13:21:14;9.50;;;2.30;;
10122;SDS011;5101;49.038;8.710;2023-02-01T13:23:52;8.93;;;3.40;;
10122;SDS011;5101;49.038;8.710;2023-02-01T13:26:18;9.95;;;2.58;;
10122;SDS011;5101;49.038;8.710;2023-02-01T13:28:47;12.95;;;3.65;;
10122;SDS011;5101;49.038;8.710;2023-02-01T13:42:29;7.97;;;2.30;;
10122;SDS011;5101;49.038;8.710;2023-02-01T13:45:03;9.48;;;2.80;;
10122;SDS011;5101;49.038;8.710;2023-02-01T13:47:39;11.57;;;3.00;;
10122;SDS011;5101;49.038;8.710;2023-02-01T13:50:12;13.23;;;2.47;;
10122;SDS011;5101;49.038;8.710;2023-02-01T13:52:44;14.20;;;2.80;;
10122;SDS011;5101;49.038;8.710;2023-02-01T13:57:45;7.43;;;2.42;;
10122;SDS011;5101;49.038;8.710;2023-02-01T14:00:26;9.95;;;2.65;;
10122;SDS011;5101;49.038;8.710;2023-02-01T14:13:36;7.53;;;3.00;;
10122;SDS011;5101;49.038;8.710;2023-02-01T14:21:45;11.85;;;3.15;;
10122;SDS011;5101;49.038;8.710;2023-02-01T14:23:59;10.45;;;2.72;;
10122;SDS011;5101;49.038;8.710;2023-02-01T14:29:01;10.48;;;2.17;;
10122;SDS011;5101;49.038;8.710;2023-02-01T14:34:28;11.37;;;2.17;;
10122;SDS011;5101;49.038;8.710;2023-02-01T14:36:59;10.68;;;2.42;;
10122;SDS011;5101;49.038;8.710;2023-02-01T14:42:22;12.25;;;5.25;;
10122;SDS011;5101;49.038;8.710;2023-02-01T14:47:42;13.32;;;3.58;;
10122;SDS011;5101;49.038;8.710;2023-02-01T14:52:49;12.07;;;2.50;;
10122;SDS011;5101;49.038;8.710;2023-02-01T14:55:35;7.05;;;2.47;;
10122;SDS011;5101;49.038;8.710;2023-02-01T14:58:36;10.05;;;2.67;;
10122;SDS011;5101;49.038;8.710;2023-02-01T15:01:25;13.23;;;2.92;;
10122;SDS011;5101;49.038;8.710;2023-02-01T15:09:31;14.52;;;3.22;;
10122;SDS011;5101;49.038;8.710;2023-02-01T15:12:01;12.55;;;2.45;;
10122;SDS011;5101;49.038;8.710;2023-02-01T15:14:39;16.10;;;2.45;;
10122;SDS011;5101;49.038;8.710;2023-02-01T15:17:24;10.85;;;3.00;;
10122;SDS011;5101;49.038;8.710;2023-02-01T15:19:58;14.13;;;2.88;;
10122;SDS011;5101;49.038;8.710;2023-02-01T15:22:39;10.88;;;3.00;;
10122;SDS011;5101;49.038;8.710;2023-02-01T15:25:05;15.30;;;3.38;;
10122;SDS011;5101;49.038;8.710;2023-02-01T15:27:31;10.18;;;2.20;;
10122;SDS011;5101;49.038;8.710;2023-02-01T15:30:08;8.80;;;2.45;;
10122;SDS011;5101;49.038;8.710;2023-02-01T15:32:41;10.05;;;2.22;;
10122;SDS011;5101;49.038;8.710;2023-02-01T15:40:55;10.73;;;2.08;;
10122;SDS011;5101;49.038;8.710;2023-02-01T15:43:24;8.95;;;2.20;;
10122;SDS011;5101;49.038;8.710;2023-02-01T15:45:50;7.53;;;2.50;;
10122;SDS011;5101;49.038;8.710;2023-02-01T15:48:20;9.47;;;2.33;;
10122;SDS011;5101;49.038;8.710;2023-02-01T15:50:49;10.80;;;2.13;;
10122;SDS011;5101;49.038;8.710;2023-02-01T15:53:17;9.30;;;2.73;;
10122;SDS011;5101;49.038;8.710;2023-02-01T15:55:45;12.93;;;2.73;;
10122;SDS011;5101;49.038;8.710;2023-02-01T15:58:22;7.93;;;2.10;;
10122;SDS011;5101;49.038;8.710;2023-02-01T16:00:59;12.15;;;2.83;;
10122;SDS011;5101;49.038;8.710;2023-02-01T16:06:10;11.60;;;2.35;;
10122;SDS011;5101;49.038;8.710;2023-02-01T16:11:25;10.18;;;2.67;;
10122;SDS011;5101;49.038;8.710;2023-02-01T16:13:55;8.93;;;2.33;;
10122;SDS011;5101;49.038;8.710;2023-02-01T16:16:21;10.80;;;2.50;;
10122;SDS011;5101;49.038;8.710;2023-02-01T16:18:47;9.63;;;3.00;;
10122;SDS011;5101;49.038;8.710;2023-02-01T16:21:13;8.63;;;1.85;;
10122;SDS011;5101;49.038;8.710;2023-02-01T16:23:38;9.30;;;2.67;;
10122;SDS011;5101;49.038;8.710;2023-02-01T16:26:04;14.65;;;4.93;;
10122;SDS011;5101;49.038;8.710;2023-02-01T16:28:30;10.25;;;2.95;;
10122;SDS011;5101;49.038;8.710;2023-02-01T16:30:56;12.02;;;2.72;;
10122;SDS011;5101;49.038;8.710;2023-02-01T16:33:22;10.52;;;3.35;;
10122;SDS011;5101;49.038;8.710;2023-02-01T16:35:50;10.83;;;3.07;;
10122;SDS011;5101;49.038;8.710;2023-02-01T16:38:17;18.92;;;5.88;;
10122;SDS011;5101;49.038;8.710;2023-02-01T16:40:46;13.48;;;3.58;;
10122;SDS011;5101;49.038;8.710;2023-02-01T16:43:16;13.33;;;3.57;;
10122;SDS011;5101;49.038;8.710;2023-02-01T16:45:44;14.43;;;4.07;;
10122;SDS011;5101;49.038;8.710;2023-02-01T16:48:21;21.08;;;8.85;;
10122;SDS011;5101;49.038;8.710;2023-02-01T16:50:51;36.27;;;15.57;;
10122;SDS011;5101;49.038;8.710;2023-02-01T16:53:19;57.58;;;24.83;;
10122;SDS011;5101;49.038;8.710;2023-02-01T16:55:45;38.15;;;15.13;;
10122;SDS011;5101;49.038;8.710;2023-02-01T16:58:12;13.82;;;4.70;;
10122;SDS011;5101;49.038;8.710;2023-02-01T17:00:38;10.47;;;3.20;;
10122;SDS011;5101;49.038;8.710;2023-02-01T17:03:03;10.23;;;2.55;;
10122;SDS011;5101;49.038;8.710;2023-02-01T17:05:30;10.18;;;2.53;;
10122;SDS011;5101;49.038;8.710;2023-02-01T17:07:57;8.07;;;1.92;;
10122;SDS011;5101;49.038;8.710;2023-02-01T17:10:28;7.05;;;1.95;;
10122;SDS011;5101;49.038;8.710;2023-02-01T17:12:54;9.52;;;2.22;;
10122;SDS011;5101;49.038;8.710;2023-02-01T17:15:21;17.60;;;2.50;;
10122;SDS011;5101;49.038;8.710;2023-02-01T17:17:47;9.45;;;2.03;;
10122;SDS011;5101;49.038;8.710;2023-02-01T17:20:19;6.68;;;2.20;;
10122;SDS011;5101;49.038;8.710;2023-02-01T17:22:47;9.73;;;2.45;;
10122;SDS011;5101;49.038;8.710;2023-02-01T17:25:16;9.23;;;2.30;;
10122;SDS011;5101;49.038;8.710;2023-02-01T17:27:43;9.73;;;2.45;;
10122;SDS011;5101;49.038;8.710;2023-02-01T17:30:09;9.55;;;2.42;;
10122;SDS011;5101;49.038;8.710;2023-02-01T17:32:36;8.73;;;2.50;;
10122;SDS011;5101;49.038;8.710;2023-02-01T17:35:01;12.35;;;3.38;;